<?xml version="1.0" encoding="UTF-8" standalone="no" ?>
<gpx xmlns="http://www.topografix.com/GPX/1/1" xmlns:xsi="http://www.w3.org/2001/XMLSchema-instance" xsi:schemaLocation="http://www.topografix.com/GPX/1/1 http://www.topografix.com/GPX/1/1/gpx.xsd" version="1.1" creator="VisuGPX - https://www.visugpx.com">
  <metadata>
    <name>Presqu'île de Crozon-La Baie de Douarnenez</name>
  </metadata>
  <trk>
    <name><![CDATA[13760473-La Baie de Douarnenez]]></name>
    <extensions>
      <line xmlns="http://www.topografix.com/GPX/gpx_style/0/2">
        <color>0000FF</color>
        <width>4</width>
      </line>
    </extensions>
    <trkseg>
      <trkpt lat="48.136" lon="-4.26174">
        <ele>30</ele>
        <time>2021-09-27T19:53:07Z</time>
      </trkpt>
      <trkpt lat="48.13595" lon="-4.26173">
        <ele>30</ele>
        <time>2021-09-27T19:53:14Z</time>
      </trkpt>
      <trkpt lat="48.13594" lon="-4.2618">
        <ele>30</ele>
        <time>2021-09-27T19:53:20Z</time>
      </trkpt>
      <trkpt lat="48.13597" lon="-4.26185">
        <ele>30</ele>
        <time>2021-09-27T19:53:26Z</time>
      </trkpt>
      <trkpt lat="48.13588" lon="-4.26186">
        <ele>29</ele>
        <time>2021-09-27T19:53:38Z</time>
      </trkpt>
      <trkpt lat="48.13587" lon="-4.2621">
        <ele>30</ele>
        <time>2021-09-27T19:54:00Z</time>
      </trkpt>
      <trkpt lat="48.13578" lon="-4.26235">
        <ele>30</ele>
        <time>2021-09-27T19:54:25Z</time>
      </trkpt>
      <trkpt lat="48.13574" lon="-4.26238">
        <ele>29</ele>
        <time>2021-09-27T19:54:31Z</time>
      </trkpt>
      <trkpt lat="48.13564" lon="-4.26235">
        <ele>29</ele>
        <time>2021-09-27T19:54:44Z</time>
      </trkpt>
      <trkpt lat="48.13573" lon="-4.26242">
        <ele>29</ele>
        <time>2021-09-27T19:54:58Z</time>
      </trkpt>
      <trkpt lat="48.13579" lon="-4.26252">
        <ele>30</ele>
        <time>2021-09-27T19:55:10Z</time>
      </trkpt>
      <trkpt lat="48.13565" lon="-4.26232">
        <ele>29</ele>
        <time>2021-09-27T19:55:36Z</time>
      </trkpt>
      <trkpt lat="48.13563" lon="-4.26239">
        <ele>29</ele>
        <time>2021-09-27T19:55:43Z</time>
      </trkpt>
      <trkpt lat="48.13559" lon="-4.2624">
        <ele>29</ele>
        <time>2021-09-27T19:55:48Z</time>
      </trkpt>
      <trkpt lat="48.13554" lon="-4.26237">
        <ele>28</ele>
        <time>2021-09-27T19:55:55Z</time>
      </trkpt>
      <trkpt lat="48.13545" lon="-4.26243">
        <ele>28</ele>
        <time>2021-09-27T19:56:08Z</time>
      </trkpt>
      <trkpt lat="48.1354" lon="-4.26254">
        <ele>28</ele>
        <time>2021-09-27T19:56:20Z</time>
      </trkpt>
      <trkpt lat="48.13516" lon="-4.2629">
        <ele>28</ele>
        <time>2021-09-27T19:57:05Z</time>
      </trkpt>
      <trkpt lat="48.135" lon="-4.26321">
        <ele>28</ele>
        <time>2021-09-27T19:57:40Z</time>
      </trkpt>
      <trkpt lat="48.13482" lon="-4.26365">
        <ele>28</ele>
        <time>2021-09-27T19:58:26Z</time>
      </trkpt>
      <trkpt lat="48.13474" lon="-4.26374">
        <ele>27</ele>
        <time>2021-09-27T19:58:40Z</time>
      </trkpt>
      <trkpt lat="48.13468" lon="-4.26394">
        <ele>27</ele>
        <time>2021-09-27T19:58:59Z</time>
      </trkpt>
      <trkpt lat="48.13464" lon="-4.26431">
        <ele>27</ele>
        <time>2021-09-27T19:59:33Z</time>
      </trkpt>
      <trkpt lat="48.13443" lon="-4.26504">
        <ele>26</ele>
        <time>2021-09-27T20:00:43Z</time>
      </trkpt>
      <trkpt lat="48.13441" lon="-4.26528">
        <ele>26</ele>
        <time>2021-09-27T20:01:05Z</time>
      </trkpt>
      <trkpt lat="48.13432" lon="-4.26575">
        <ele>24</ele>
        <time>2021-09-27T20:01:48Z</time>
      </trkpt>
      <trkpt lat="48.13431" lon="-4.26606">
        <ele>23</ele>
        <time>2021-09-27T20:02:16Z</time>
      </trkpt>
      <trkpt lat="48.13426" lon="-4.26636">
        <ele>21</ele>
        <time>2021-09-27T20:02:44Z</time>
      </trkpt>
      <trkpt lat="48.13427" lon="-4.26694">
        <ele>20</ele>
        <time>2021-09-27T20:03:35Z</time>
      </trkpt>
      <trkpt lat="48.13422" lon="-4.26715">
        <ele>18</ele>
        <time>2021-09-27T20:03:55Z</time>
      </trkpt>
      <trkpt lat="48.13416" lon="-4.26772">
        <ele>15</ele>
        <time>2021-09-27T20:04:47Z</time>
      </trkpt>
      <trkpt lat="48.13421" lon="-4.26794">
        <ele>14</ele>
        <time>2021-09-27T20:05:07Z</time>
      </trkpt>
      <trkpt lat="48.1343" lon="-4.26818">
        <ele>13</ele>
        <time>2021-09-27T20:05:32Z</time>
      </trkpt>
      <trkpt lat="48.13433" lon="-4.26824">
        <ele>13</ele>
        <time>2021-09-27T20:05:38Z</time>
      </trkpt>
      <trkpt lat="48.13438" lon="-4.26827">
        <ele>13</ele>
        <time>2021-09-27T20:05:46Z</time>
      </trkpt>
      <trkpt lat="48.13442" lon="-4.26841">
        <ele>12</ele>
        <time>2021-09-27T20:05:59Z</time>
      </trkpt>
      <trkpt lat="48.13442" lon="-4.26834">
        <ele>13</ele>
        <time>2021-09-27T20:06:05Z</time>
      </trkpt>
      <trkpt lat="48.13435" lon="-4.26827">
        <ele>13</ele>
        <time>2021-09-27T20:06:17Z</time>
      </trkpt>
      <trkpt lat="48.13439" lon="-4.26829">
        <ele>13</ele>
        <time>2021-09-27T20:06:22Z</time>
      </trkpt>
      <trkpt lat="48.13457" lon="-4.26851">
        <ele>12</ele>
        <time>2021-09-27T20:06:53Z</time>
      </trkpt>
      <trkpt lat="48.13459" lon="-4.26857">
        <ele>11</ele>
        <time>2021-09-27T20:06:59Z</time>
      </trkpt>
      <trkpt lat="48.13457" lon="-4.26864">
        <ele>11</ele>
        <time>2021-09-27T20:07:06Z</time>
      </trkpt>
      <trkpt lat="48.13453" lon="-4.26867">
        <ele>10</ele>
        <time>2021-09-27T20:07:12Z</time>
      </trkpt>
      <trkpt lat="48.13424" lon="-4.26861">
        <ele>10</ele>
        <time>2021-09-27T20:07:51Z</time>
      </trkpt>
      <trkpt lat="48.13404" lon="-4.26873">
        <ele>9</ele>
        <time>2021-09-27T20:08:20Z</time>
      </trkpt>
      <trkpt lat="48.13389" lon="-4.26876">
        <ele>10</ele>
        <time>2021-09-27T20:08:40Z</time>
      </trkpt>
      <trkpt lat="48.1339" lon="-4.26906">
        <ele>7</ele>
        <time>2021-09-27T20:09:07Z</time>
      </trkpt>
      <trkpt lat="48.13379" lon="-4.26928">
        <ele>7</ele>
        <time>2021-09-27T20:09:31Z</time>
      </trkpt>
      <trkpt lat="48.13342" lon="-4.26951">
        <ele>7</ele>
        <time>2021-09-27T20:10:25Z</time>
      </trkpt>
      <trkpt lat="48.13326" lon="-4.26972">
        <ele>7</ele>
        <time>2021-09-27T20:10:53Z</time>
      </trkpt>
      <trkpt lat="48.13318" lon="-4.26979">
        <ele>8</ele>
        <time>2021-09-27T20:11:05Z</time>
      </trkpt>
      <trkpt lat="48.13316" lon="-4.26986">
        <ele>7</ele>
        <time>2021-09-27T20:11:12Z</time>
      </trkpt>
      <trkpt lat="48.13311" lon="-4.26988">
        <ele>7</ele>
        <time>2021-09-27T20:11:19Z</time>
      </trkpt>
      <trkpt lat="48.13306" lon="-4.26986">
        <ele>8</ele>
        <time>2021-09-27T20:11:26Z</time>
      </trkpt>
      <trkpt lat="48.1328" lon="-4.26989">
        <ele>10</ele>
        <time>2021-09-27T20:12:01Z</time>
      </trkpt>
      <trkpt lat="48.1327" lon="-4.26987">
        <ele>11</ele>
        <time>2021-09-27T20:12:14Z</time>
      </trkpt>
      <trkpt lat="48.13266" lon="-4.26989">
        <ele>11</ele>
        <time>2021-09-27T20:12:20Z</time>
      </trkpt>
      <trkpt lat="48.13216" lon="-4.2699">
        <ele>11</ele>
        <time>2021-09-27T20:13:27Z</time>
      </trkpt>
      <trkpt lat="48.13193" lon="-4.26983">
        <ele>11</ele>
        <time>2021-09-27T20:13:58Z</time>
      </trkpt>
      <trkpt lat="48.13172" lon="-4.26963">
        <ele>12</ele>
        <time>2021-09-27T20:14:31Z</time>
      </trkpt>
      <trkpt lat="48.13124" lon="-4.26907">
        <ele>12</ele>
        <time>2021-09-27T20:15:52Z</time>
      </trkpt>
      <trkpt lat="48.13091" lon="-4.2685">
        <ele>12</ele>
        <time>2021-09-27T20:17:00Z</time>
      </trkpt>
      <trkpt lat="48.13076" lon="-4.26819">
        <ele>13</ele>
        <time>2021-09-27T20:17:34Z</time>
      </trkpt>
      <trkpt lat="48.13059" lon="-4.26791">
        <ele>14</ele>
        <time>2021-09-27T20:18:07Z</time>
      </trkpt>
      <trkpt lat="48.13051" lon="-4.26782">
        <ele>14</ele>
        <time>2021-09-27T20:18:21Z</time>
      </trkpt>
      <trkpt lat="48.13047" lon="-4.26787">
        <ele>13</ele>
        <time>2021-09-27T20:18:28Z</time>
      </trkpt>
      <trkpt lat="48.13042" lon="-4.26787">
        <ele>13</ele>
        <time>2021-09-27T20:18:34Z</time>
      </trkpt>
      <trkpt lat="48.1301" lon="-4.26805">
        <ele>10</ele>
        <time>2021-09-27T20:19:20Z</time>
      </trkpt>
      <trkpt lat="48.13013" lon="-4.26812">
        <ele>11</ele>
        <time>2021-09-27T20:19:27Z</time>
      </trkpt>
      <trkpt lat="48.1301" lon="-4.26818">
        <ele>11</ele>
        <time>2021-09-27T20:19:34Z</time>
      </trkpt>
      <trkpt lat="48.13016" lon="-4.26847">
        <ele>13</ele>
        <time>2021-09-27T20:20:01Z</time>
      </trkpt>
      <trkpt lat="48.13028" lon="-4.2688">
        <ele>16</ele>
        <time>2021-09-27T20:20:35Z</time>
      </trkpt>
      <trkpt lat="48.13034" lon="-4.26891">
        <ele>16</ele>
        <time>2021-09-27T20:20:47Z</time>
      </trkpt>
      <trkpt lat="48.13043" lon="-4.26896">
        <ele>15</ele>
        <time>2021-09-27T20:21:00Z</time>
      </trkpt>
      <trkpt lat="48.1305" lon="-4.26905">
        <ele>14</ele>
        <time>2021-09-27T20:21:12Z</time>
      </trkpt>
      <trkpt lat="48.1307" lon="-4.2694">
        <ele>14</ele>
        <time>2021-09-27T20:21:53Z</time>
      </trkpt>
      <trkpt lat="48.1308" lon="-4.26945">
        <ele>13</ele>
        <time>2021-09-27T20:22:07Z</time>
      </trkpt>
      <trkpt lat="48.13081" lon="-4.26959">
        <ele>15</ele>
        <time>2021-09-27T20:22:20Z</time>
      </trkpt>
      <trkpt lat="48.13091" lon="-4.26984">
        <ele>18</ele>
        <time>2021-09-27T20:22:46Z</time>
      </trkpt>
      <trkpt lat="48.13091" lon="-4.26992">
        <ele>19</ele>
        <time>2021-09-27T20:22:53Z</time>
      </trkpt>
      <trkpt lat="48.13108" lon="-4.27012">
        <ele>20</ele>
        <time>2021-09-27T20:23:22Z</time>
      </trkpt>
      <trkpt lat="48.13113" lon="-4.27024">
        <ele>21</ele>
        <time>2021-09-27T20:23:35Z</time>
      </trkpt>
      <trkpt lat="48.13125" lon="-4.27039">
        <ele>22</ele>
        <time>2021-09-27T20:23:55Z</time>
      </trkpt>
      <trkpt lat="48.13126" lon="-4.27045">
        <ele>23</ele>
        <time>2021-09-27T20:24:01Z</time>
      </trkpt>
      <trkpt lat="48.13135" lon="-4.2705">
        <ele>22</ele>
        <time>2021-09-27T20:24:14Z</time>
      </trkpt>
      <trkpt lat="48.13157" lon="-4.27078">
        <ele>23</ele>
        <time>2021-09-27T20:24:52Z</time>
      </trkpt>
      <trkpt lat="48.13161" lon="-4.2708">
        <ele>23</ele>
        <time>2021-09-27T20:24:58Z</time>
      </trkpt>
      <trkpt lat="48.13166" lon="-4.27079">
        <ele>21</ele>
        <time>2021-09-27T20:25:05Z</time>
      </trkpt>
      <trkpt lat="48.13178" lon="-4.27092">
        <ele>23</ele>
        <time>2021-09-27T20:25:24Z</time>
      </trkpt>
      <trkpt lat="48.13187" lon="-4.27094">
        <ele>22</ele>
        <time>2021-09-27T20:25:36Z</time>
      </trkpt>
      <trkpt lat="48.1319" lon="-4.27099">
        <ele>23</ele>
        <time>2021-09-27T20:25:42Z</time>
      </trkpt>
      <trkpt lat="48.13204" lon="-4.27102">
        <ele>21</ele>
        <time>2021-09-27T20:26:01Z</time>
      </trkpt>
      <trkpt lat="48.13215" lon="-4.27114">
        <ele>22</ele>
        <time>2021-09-27T20:26:20Z</time>
      </trkpt>
      <trkpt lat="48.13224" lon="-4.27117">
        <ele>21</ele>
        <time>2021-09-27T20:26:32Z</time>
      </trkpt>
      <trkpt lat="48.1323" lon="-4.27115">
        <ele>20</ele>
        <time>2021-09-27T20:26:40Z</time>
      </trkpt>
      <trkpt lat="48.13235" lon="-4.27118">
        <ele>20</ele>
        <time>2021-09-27T20:26:47Z</time>
      </trkpt>
      <trkpt lat="48.13242" lon="-4.27129">
        <ele>20</ele>
        <time>2021-09-27T20:27:01Z</time>
      </trkpt>
      <trkpt lat="48.13245" lon="-4.2715">
        <ele>23</ele>
        <time>2021-09-27T20:27:20Z</time>
      </trkpt>
      <trkpt lat="48.13258" lon="-4.27155">
        <ele>21</ele>
        <time>2021-09-27T20:27:38Z</time>
      </trkpt>
      <trkpt lat="48.13248" lon="-4.27159">
        <ele>23</ele>
        <time>2021-09-27T20:27:52Z</time>
      </trkpt>
      <trkpt lat="48.13251" lon="-4.27153">
        <ele>22</ele>
        <time>2021-09-27T20:27:58Z</time>
      </trkpt>
      <trkpt lat="48.1326" lon="-4.27157">
        <ele>21</ele>
        <time>2021-09-27T20:28:11Z</time>
      </trkpt>
      <trkpt lat="48.13262" lon="-4.2715">
        <ele>20</ele>
        <time>2021-09-27T20:28:18Z</time>
      </trkpt>
      <trkpt lat="48.13273" lon="-4.27164">
        <ele>19</ele>
        <time>2021-09-27T20:28:37Z</time>
      </trkpt>
      <trkpt lat="48.13278" lon="-4.27161">
        <ele>18</ele>
        <time>2021-09-27T20:28:44Z</time>
      </trkpt>
      <trkpt lat="48.13283" lon="-4.27164">
        <ele>17</ele>
        <time>2021-09-27T20:28:51Z</time>
      </trkpt>
      <trkpt lat="48.13286" lon="-4.27177">
        <ele>18</ele>
        <time>2021-09-27T20:29:03Z</time>
      </trkpt>
      <trkpt lat="48.1329" lon="-4.27178">
        <ele>17</ele>
        <time>2021-09-27T20:29:09Z</time>
      </trkpt>
      <trkpt lat="48.13285" lon="-4.27177">
        <ele>18</ele>
        <time>2021-09-27T20:29:16Z</time>
      </trkpt>
      <trkpt lat="48.1329" lon="-4.27177">
        <ele>17</ele>
        <time>2021-09-27T20:29:22Z</time>
      </trkpt>
      <trkpt lat="48.13293" lon="-4.27191">
        <ele>17</ele>
        <time>2021-09-27T20:29:35Z</time>
      </trkpt>
      <trkpt lat="48.13307" lon="-4.27192">
        <ele>14</ele>
        <time>2021-09-27T20:29:54Z</time>
      </trkpt>
      <trkpt lat="48.13303" lon="-4.27214">
        <ele>17</ele>
        <time>2021-09-27T20:30:14Z</time>
      </trkpt>
      <trkpt lat="48.13304" lon="-4.2722">
        <ele>17</ele>
        <time>2021-09-27T20:30:20Z</time>
      </trkpt>
      <trkpt lat="48.13312" lon="-4.27228">
        <ele>15</ele>
        <time>2021-09-27T20:30:33Z</time>
      </trkpt>
      <trkpt lat="48.13314" lon="-4.27242">
        <ele>15</ele>
        <time>2021-09-27T20:30:45Z</time>
      </trkpt>
      <trkpt lat="48.13321" lon="-4.2725">
        <ele>13</ele>
        <time>2021-09-27T20:30:57Z</time>
      </trkpt>
      <trkpt lat="48.13319" lon="-4.27255">
        <ele>14</ele>
        <time>2021-09-27T20:31:02Z</time>
      </trkpt>
      <trkpt lat="48.13325" lon="-4.27283">
        <ele>11</ele>
        <time>2021-09-27T20:31:29Z</time>
      </trkpt>
      <trkpt lat="48.13324" lon="-4.27303">
        <ele>12</ele>
        <time>2021-09-27T20:31:46Z</time>
      </trkpt>
      <trkpt lat="48.13319" lon="-4.27307">
        <ele>13</ele>
        <time>2021-09-27T20:31:54Z</time>
      </trkpt>
      <trkpt lat="48.1331" lon="-4.27324">
        <ele>16</ele>
        <time>2021-09-27T20:32:13Z</time>
      </trkpt>
      <trkpt lat="48.13314" lon="-4.27346">
        <ele>15</ele>
        <time>2021-09-27T20:32:34Z</time>
      </trkpt>
      <trkpt lat="48.1332" lon="-4.27358">
        <ele>14</ele>
        <time>2021-09-27T20:32:47Z</time>
      </trkpt>
      <trkpt lat="48.13336" lon="-4.27378">
        <ele>10</ele>
        <time>2021-09-27T20:33:15Z</time>
      </trkpt>
      <trkpt lat="48.13341" lon="-4.2739">
        <ele>11</ele>
        <time>2021-09-27T20:33:27Z</time>
      </trkpt>
      <trkpt lat="48.13351" lon="-4.27393">
        <ele>10</ele>
        <time>2021-09-27T20:33:41Z</time>
      </trkpt>
      <trkpt lat="48.13356" lon="-4.27407">
        <ele>10</ele>
        <time>2021-09-27T20:33:55Z</time>
      </trkpt>
      <trkpt lat="48.13359" lon="-4.27429">
        <ele>10</ele>
        <time>2021-09-27T20:34:15Z</time>
      </trkpt>
      <trkpt lat="48.13363" lon="-4.27433">
        <ele>9</ele>
        <time>2021-09-27T20:34:22Z</time>
      </trkpt>
      <trkpt lat="48.13368" lon="-4.27433">
        <ele>9</ele>
        <time>2021-09-27T20:34:28Z</time>
      </trkpt>
      <trkpt lat="48.13372" lon="-4.27438">
        <ele>8</ele>
        <time>2021-09-27T20:34:35Z</time>
      </trkpt>
      <trkpt lat="48.13381" lon="-4.27472">
        <ele>7</ele>
        <time>2021-09-27T20:35:08Z</time>
      </trkpt>
      <trkpt lat="48.13388" lon="-4.27519">
        <ele>5</ele>
        <time>2021-09-27T20:35:51Z</time>
      </trkpt>
      <trkpt lat="48.13386" lon="-4.27513">
        <ele>5</ele>
        <time>2021-09-27T20:35:57Z</time>
      </trkpt>
      <trkpt lat="48.13369" lon="-4.27504">
        <ele>8</ele>
        <time>2021-09-27T20:36:21Z</time>
      </trkpt>
      <trkpt lat="48.13364" lon="-4.27502">
        <ele>9</ele>
        <time>2021-09-27T20:36:28Z</time>
      </trkpt>
      <trkpt lat="48.13353" lon="-4.27504">
        <ele>10</ele>
        <time>2021-09-27T20:36:42Z</time>
      </trkpt>
      <trkpt lat="48.13345" lon="-4.2751">
        <ele>11</ele>
        <time>2021-09-27T20:36:54Z</time>
      </trkpt>
      <trkpt lat="48.13334" lon="-4.27536">
        <ele>9</ele>
        <time>2021-09-27T20:37:22Z</time>
      </trkpt>
      <trkpt lat="48.13323" lon="-4.27548">
        <ele>9</ele>
        <time>2021-09-27T20:37:40Z</time>
      </trkpt>
      <trkpt lat="48.13309" lon="-4.27556">
        <ele>10</ele>
        <time>2021-09-27T20:38:00Z</time>
      </trkpt>
      <trkpt lat="48.13281" lon="-4.2755">
        <ele>15</ele>
        <time>2021-09-27T20:38:38Z</time>
      </trkpt>
      <trkpt lat="48.13247" lon="-4.2756">
        <ele>18</ele>
        <time>2021-09-27T20:39:24Z</time>
      </trkpt>
      <trkpt lat="48.13232" lon="-4.27568">
        <ele>18</ele>
        <time>2021-09-27T20:39:45Z</time>
      </trkpt>
      <trkpt lat="48.13212" lon="-4.27565">
        <ele>20</ele>
        <time>2021-09-27T20:40:12Z</time>
      </trkpt>
      <trkpt lat="48.13198" lon="-4.27573">
        <ele>20</ele>
        <time>2021-09-27T20:40:32Z</time>
      </trkpt>
      <trkpt lat="48.13193" lon="-4.27573">
        <ele>21</ele>
        <time>2021-09-27T20:40:39Z</time>
      </trkpt>
      <trkpt lat="48.13174" lon="-4.27582">
        <ele>21</ele>
        <time>2021-09-27T20:41:05Z</time>
      </trkpt>
      <trkpt lat="48.13164" lon="-4.27581">
        <ele>22</ele>
        <time>2021-09-27T20:41:19Z</time>
      </trkpt>
      <trkpt lat="48.13152" lon="-4.2757">
        <ele>26</ele>
        <time>2021-09-27T20:41:37Z</time>
      </trkpt>
      <trkpt lat="48.13139" lon="-4.27569">
        <ele>29</ele>
        <time>2021-09-27T20:41:55Z</time>
      </trkpt>
      <trkpt lat="48.13134" lon="-4.27571">
        <ele>29</ele>
        <time>2021-09-27T20:42:02Z</time>
      </trkpt>
      <trkpt lat="48.13122" lon="-4.27619">
        <ele>23</ele>
        <time>2021-09-27T20:42:47Z</time>
      </trkpt>
      <trkpt lat="48.13116" lon="-4.27631">
        <ele>22</ele>
        <time>2021-09-27T20:43:01Z</time>
      </trkpt>
      <trkpt lat="48.13116" lon="-4.27638">
        <ele>20</ele>
        <time>2021-09-27T20:43:07Z</time>
      </trkpt>
      <trkpt lat="48.13111" lon="-4.27652">
        <ele>19</ele>
        <time>2021-09-27T20:43:21Z</time>
      </trkpt>
      <trkpt lat="48.13104" lon="-4.27662">
        <ele>19</ele>
        <time>2021-09-27T20:43:34Z</time>
      </trkpt>
      <trkpt lat="48.13097" lon="-4.27683">
        <ele>16</ele>
        <time>2021-09-27T20:43:55Z</time>
      </trkpt>
      <trkpt lat="48.1307" lon="-4.2772">
        <ele>14</ele>
        <time>2021-09-27T20:44:44Z</time>
      </trkpt>
      <trkpt lat="48.13038" lon="-4.27752">
        <ele>16</ele>
        <time>2021-09-27T20:45:35Z</time>
      </trkpt>
      <trkpt lat="48.13029" lon="-4.27771">
        <ele>15</ele>
        <time>2021-09-27T20:45:56Z</time>
      </trkpt>
      <trkpt lat="48.13021" lon="-4.27779">
        <ele>15</ele>
        <time>2021-09-27T20:46:09Z</time>
      </trkpt>
      <trkpt lat="48.13011" lon="-4.27805">
        <ele>13</ele>
        <time>2021-09-27T20:46:35Z</time>
      </trkpt>
      <trkpt lat="48.12992" lon="-4.27838">
        <ele>10</ele>
        <time>2021-09-27T20:47:14Z</time>
      </trkpt>
      <trkpt lat="48.12987" lon="-4.27839">
        <ele>11</ele>
        <time>2021-09-27T20:47:21Z</time>
      </trkpt>
      <trkpt lat="48.1298" lon="-4.27848">
        <ele>10</ele>
        <time>2021-09-27T20:47:33Z</time>
      </trkpt>
      <trkpt lat="48.1297" lon="-4.27852">
        <ele>11</ele>
        <time>2021-09-27T20:47:47Z</time>
      </trkpt>
      <trkpt lat="48.12963" lon="-4.27862">
        <ele>10</ele>
        <time>2021-09-27T20:48:00Z</time>
      </trkpt>
      <trkpt lat="48.12953" lon="-4.2786">
        <ele>12</ele>
        <time>2021-09-27T20:48:13Z</time>
      </trkpt>
      <trkpt lat="48.12952" lon="-4.27867">
        <ele>11</ele>
        <time>2021-09-27T20:48:20Z</time>
      </trkpt>
      <trkpt lat="48.12947" lon="-4.27864">
        <ele>12</ele>
        <time>2021-09-27T20:48:27Z</time>
      </trkpt>
      <trkpt lat="48.12933" lon="-4.27868">
        <ele>12</ele>
        <time>2021-09-27T20:48:46Z</time>
      </trkpt>
      <trkpt lat="48.12913" lon="-4.27862">
        <ele>15</ele>
        <time>2021-09-27T20:49:13Z</time>
      </trkpt>
      <trkpt lat="48.12902" lon="-4.27865">
        <ele>16</ele>
        <time>2021-09-27T20:49:28Z</time>
      </trkpt>
      <trkpt lat="48.12884" lon="-4.27876">
        <ele>16</ele>
        <time>2021-09-27T20:49:54Z</time>
      </trkpt>
      <trkpt lat="48.12876" lon="-4.27885">
        <ele>16</ele>
        <time>2021-09-27T20:50:07Z</time>
      </trkpt>
      <trkpt lat="48.12862" lon="-4.27895">
        <ele>17</ele>
        <time>2021-09-27T20:50:28Z</time>
      </trkpt>
      <trkpt lat="48.12852" lon="-4.27912">
        <ele>17</ele>
        <time>2021-09-27T20:50:48Z</time>
      </trkpt>
      <trkpt lat="48.12846" lon="-4.27932">
        <ele>16</ele>
        <time>2021-09-27T20:51:08Z</time>
      </trkpt>
      <trkpt lat="48.12846" lon="-4.27961">
        <ele>13</ele>
        <time>2021-09-27T20:51:34Z</time>
      </trkpt>
      <trkpt lat="48.1285" lon="-4.2798">
        <ele>11</ele>
        <time>2021-09-27T20:51:51Z</time>
      </trkpt>
      <trkpt lat="48.12842" lon="-4.28014">
        <ele>9</ele>
        <time>2021-09-27T20:52:23Z</time>
      </trkpt>
      <trkpt lat="48.12833" lon="-4.28032">
        <ele>9</ele>
        <time>2021-09-27T20:52:44Z</time>
      </trkpt>
      <trkpt lat="48.12814" lon="-4.28057">
        <ele>11</ele>
        <time>2021-09-27T20:53:17Z</time>
      </trkpt>
      <trkpt lat="48.12809" lon="-4.28068">
        <ele>11</ele>
        <time>2021-09-27T20:53:29Z</time>
      </trkpt>
      <trkpt lat="48.12804" lon="-4.28071">
        <ele>12</ele>
        <time>2021-09-27T20:53:36Z</time>
      </trkpt>
      <trkpt lat="48.12784" lon="-4.28072">
        <ele>15</ele>
        <time>2021-09-27T20:54:03Z</time>
      </trkpt>
      <trkpt lat="48.1278" lon="-4.28076">
        <ele>16</ele>
        <time>2021-09-27T20:54:09Z</time>
      </trkpt>
      <trkpt lat="48.12772" lon="-4.28095">
        <ele>15</ele>
        <time>2021-09-27T20:54:29Z</time>
      </trkpt>
      <trkpt lat="48.12764" lon="-4.28139">
        <ele>12</ele>
        <time>2021-09-27T20:55:10Z</time>
      </trkpt>
      <trkpt lat="48.12758" lon="-4.28152">
        <ele>11</ele>
        <time>2021-09-27T20:55:24Z</time>
      </trkpt>
      <trkpt lat="48.12743" lon="-4.28172">
        <ele>11</ele>
        <time>2021-09-27T20:55:51Z</time>
      </trkpt>
      <trkpt lat="48.1272" lon="-4.28217">
        <ele>12</ele>
        <time>2021-09-27T20:56:41Z</time>
      </trkpt>
      <trkpt lat="48.12709" lon="-4.28231">
        <ele>13</ele>
        <time>2021-09-27T20:57:01Z</time>
      </trkpt>
      <trkpt lat="48.12694" lon="-4.28239">
        <ele>15</ele>
        <time>2021-09-27T20:57:22Z</time>
      </trkpt>
      <trkpt lat="48.12688" lon="-4.28249">
        <ele>16</ele>
        <time>2021-09-27T20:57:34Z</time>
      </trkpt>
      <trkpt lat="48.12678" lon="-4.28248">
        <ele>18</ele>
        <time>2021-09-27T20:57:47Z</time>
      </trkpt>
      <trkpt lat="48.12665" lon="-4.28257">
        <ele>19</ele>
        <time>2021-09-27T20:58:06Z</time>
      </trkpt>
      <trkpt lat="48.12662" lon="-4.28262">
        <ele>19</ele>
        <time>2021-09-27T20:58:12Z</time>
      </trkpt>
      <trkpt lat="48.12641" lon="-4.28352">
        <ele>14</ele>
        <time>2021-09-27T20:59:37Z</time>
      </trkpt>
      <trkpt lat="48.12627" lon="-4.28373">
        <ele>15</ele>
        <time>2021-09-27T21:00:04Z</time>
      </trkpt>
      <trkpt lat="48.12627" lon="-4.28395">
        <ele>13</ele>
        <time>2021-09-27T21:00:23Z</time>
      </trkpt>
      <trkpt lat="48.12621" lon="-4.28417">
        <ele>12</ele>
        <time>2021-09-27T21:00:44Z</time>
      </trkpt>
      <trkpt lat="48.1262" lon="-4.28438">
        <ele>11</ele>
        <time>2021-09-27T21:01:03Z</time>
      </trkpt>
      <trkpt lat="48.12607" lon="-4.28476">
        <ele>9</ele>
        <time>2021-09-27T21:01:41Z</time>
      </trkpt>
      <trkpt lat="48.12603" lon="-4.28472">
        <ele>10</ele>
        <time>2021-09-27T21:01:48Z</time>
      </trkpt>
      <trkpt lat="48.12601" lon="-4.28465">
        <ele>11</ele>
        <time>2021-09-27T21:01:54Z</time>
      </trkpt>
      <trkpt lat="48.12593" lon="-4.28458">
        <ele>13</ele>
        <time>2021-09-27T21:02:07Z</time>
      </trkpt>
      <trkpt lat="48.1258" lon="-4.28436">
        <ele>17</ele>
        <time>2021-09-27T21:02:33Z</time>
      </trkpt>
      <trkpt lat="48.12562" lon="-4.28423">
        <ele>17</ele>
        <time>2021-09-27T21:03:00Z</time>
      </trkpt>
      <trkpt lat="48.12537" lon="-4.28418">
        <ele>15</ele>
        <time>2021-09-27T21:03:33Z</time>
      </trkpt>
      <trkpt lat="48.12532" lon="-4.28419">
        <ele>15</ele>
        <time>2021-09-27T21:03:40Z</time>
      </trkpt>
      <trkpt lat="48.12474" lon="-4.28394">
        <ele>14</ele>
        <time>2021-09-27T21:05:01Z</time>
      </trkpt>
      <trkpt lat="48.12456" lon="-4.28384">
        <ele>14</ele>
        <time>2021-09-27T21:05:26Z</time>
      </trkpt>
      <trkpt lat="48.12442" lon="-4.28373">
        <ele>15</ele>
        <time>2021-09-27T21:05:47Z</time>
      </trkpt>
      <trkpt lat="48.12437" lon="-4.28371">
        <ele>15</ele>
        <time>2021-09-27T21:05:54Z</time>
      </trkpt>
      <trkpt lat="48.12432" lon="-4.28373">
        <ele>14</ele>
        <time>2021-09-27T21:06:01Z</time>
      </trkpt>
      <trkpt lat="48.12423" lon="-4.2837">
        <ele>14</ele>
        <time>2021-09-27T21:06:13Z</time>
      </trkpt>
      <trkpt lat="48.12406" lon="-4.28353">
        <ele>16</ele>
        <time>2021-09-27T21:06:41Z</time>
      </trkpt>
      <trkpt lat="48.12392" lon="-4.28345">
        <ele>17</ele>
        <time>2021-09-27T21:07:01Z</time>
      </trkpt>
      <trkpt lat="48.12384" lon="-4.28336">
        <ele>17</ele>
        <time>2021-09-27T21:07:14Z</time>
      </trkpt>
      <trkpt lat="48.1237" lon="-4.2833">
        <ele>17</ele>
        <time>2021-09-27T21:07:33Z</time>
      </trkpt>
      <trkpt lat="48.12343" lon="-4.28328">
        <ele>15</ele>
        <time>2021-09-27T21:08:10Z</time>
      </trkpt>
      <trkpt lat="48.12328" lon="-4.28323">
        <ele>15</ele>
        <time>2021-09-27T21:08:30Z</time>
      </trkpt>
      <trkpt lat="48.12314" lon="-4.28303">
        <ele>19</ele>
        <time>2021-09-27T21:08:56Z</time>
      </trkpt>
      <trkpt lat="48.12291" lon="-4.28279">
        <ele>24</ele>
        <time>2021-09-27T21:09:33Z</time>
      </trkpt>
      <trkpt lat="48.12279" lon="-4.28261">
        <ele>27</ele>
        <time>2021-09-27T21:09:56Z</time>
      </trkpt>
      <trkpt lat="48.12269" lon="-4.28257">
        <ele>28</ele>
        <time>2021-09-27T21:10:10Z</time>
      </trkpt>
      <trkpt lat="48.12241" lon="-4.28268">
        <ele>23</ele>
        <time>2021-09-27T21:10:48Z</time>
      </trkpt>
      <trkpt lat="48.12232" lon="-4.28275">
        <ele>21</ele>
        <time>2021-09-27T21:11:02Z</time>
      </trkpt>
      <trkpt lat="48.12209" lon="-4.28286">
        <ele>18</ele>
        <time>2021-09-27T21:11:34Z</time>
      </trkpt>
      <trkpt lat="48.12179" lon="-4.28293">
        <ele>16</ele>
        <time>2021-09-27T21:12:15Z</time>
      </trkpt>
      <trkpt lat="48.12145" lon="-4.28285">
        <ele>17</ele>
        <time>2021-09-27T21:13:01Z</time>
      </trkpt>
      <trkpt lat="48.12125" lon="-4.28287">
        <ele>17</ele>
        <time>2021-09-27T21:13:27Z</time>
      </trkpt>
      <trkpt lat="48.121" lon="-4.28285">
        <ele>17</ele>
        <time>2021-09-27T21:14:01Z</time>
      </trkpt>
      <trkpt lat="48.12091" lon="-4.28288">
        <ele>16</ele>
        <time>2021-09-27T21:14:13Z</time>
      </trkpt>
      <trkpt lat="48.12068" lon="-4.28278">
        <ele>16</ele>
        <time>2021-09-27T21:14:45Z</time>
      </trkpt>
      <trkpt lat="48.12063" lon="-4.2828">
        <ele>15</ele>
        <time>2021-09-27T21:14:52Z</time>
      </trkpt>
      <trkpt lat="48.1206" lon="-4.28274">
        <ele>15</ele>
        <time>2021-09-27T21:14:59Z</time>
      </trkpt>
      <trkpt lat="48.12044" lon="-4.28258">
        <ele>16</ele>
        <time>2021-09-27T21:15:24Z</time>
      </trkpt>
      <trkpt lat="48.12043" lon="-4.28252">
        <ele>16</ele>
        <time>2021-09-27T21:15:30Z</time>
      </trkpt>
      <trkpt lat="48.1205" lon="-4.28232">
        <ele>20</ele>
        <time>2021-09-27T21:15:50Z</time>
      </trkpt>
      <trkpt lat="48.12051" lon="-4.28203">
        <ele>24</ele>
        <time>2021-09-27T21:16:16Z</time>
      </trkpt>
      <trkpt lat="48.12054" lon="-4.2819">
        <ele>27</ele>
        <time>2021-09-27T21:16:28Z</time>
      </trkpt>
      <trkpt lat="48.12056" lon="-4.2816">
        <ele>31</ele>
        <time>2021-09-27T21:16:55Z</time>
      </trkpt>
      <trkpt lat="48.12054" lon="-4.28133">
        <ele>32</ele>
        <time>2021-09-27T21:17:19Z</time>
      </trkpt>
      <trkpt lat="48.12066" lon="-4.2812">
        <ele>35</ele>
        <time>2021-09-27T21:17:39Z</time>
      </trkpt>
      <trkpt lat="48.1208" lon="-4.28122">
        <ele>38</ele>
        <time>2021-09-27T21:17:58Z</time>
      </trkpt>
      <trkpt lat="48.12115" lon="-4.2812">
        <ele>41</ele>
        <time>2021-09-27T21:18:44Z</time>
      </trkpt>
      <trkpt lat="48.12155" lon="-4.28126">
        <ele>45</ele>
        <time>2021-09-27T21:19:38Z</time>
      </trkpt>
      <trkpt lat="48.12164" lon="-4.28131">
        <ele>45</ele>
        <time>2021-09-27T21:19:51Z</time>
      </trkpt>
      <trkpt lat="48.12189" lon="-4.28132">
        <ele>46</ele>
        <time>2021-09-27T21:20:24Z</time>
      </trkpt>
      <trkpt lat="48.12194" lon="-4.2813">
        <ele>46</ele>
        <time>2021-09-27T21:20:31Z</time>
      </trkpt>
      <trkpt lat="48.12213" lon="-4.28135">
        <ele>46</ele>
        <time>2021-09-27T21:20:57Z</time>
      </trkpt>
      <trkpt lat="48.12223" lon="-4.28134">
        <ele>46</ele>
        <time>2021-09-27T21:21:10Z</time>
      </trkpt>
      <trkpt lat="48.12251" lon="-4.28145">
        <ele>45</ele>
        <time>2021-09-27T21:21:49Z</time>
      </trkpt>
      <trkpt lat="48.12257" lon="-4.28145">
        <ele>45</ele>
        <time>2021-09-27T21:21:57Z</time>
      </trkpt>
      <trkpt lat="48.12286" lon="-4.28155">
        <ele>45</ele>
        <time>2021-09-27T21:22:37Z</time>
      </trkpt>
      <trkpt lat="48.12291" lon="-4.28154">
        <ele>45</ele>
        <time>2021-09-27T21:22:43Z</time>
      </trkpt>
      <trkpt lat="48.1232" lon="-4.28169">
        <ele>45</ele>
        <time>2021-09-27T21:23:24Z</time>
      </trkpt>
      <trkpt lat="48.12331" lon="-4.28168">
        <ele>45</ele>
        <time>2021-09-27T21:23:39Z</time>
      </trkpt>
      <trkpt lat="48.12346" lon="-4.28174">
        <ele>44</ele>
        <time>2021-09-27T21:24:00Z</time>
      </trkpt>
      <trkpt lat="48.12381" lon="-4.28204">
        <ele>40</ele>
        <time>2021-09-27T21:24:53Z</time>
      </trkpt>
      <trkpt lat="48.12416" lon="-4.28227">
        <ele>39</ele>
        <time>2021-09-27T21:25:44Z</time>
      </trkpt>
      <trkpt lat="48.12431" lon="-4.28245">
        <ele>38</ele>
        <time>2021-09-27T21:26:10Z</time>
      </trkpt>
      <trkpt lat="48.12442" lon="-4.28243">
        <ele>38</ele>
        <time>2021-09-27T21:26:25Z</time>
      </trkpt>
      <trkpt lat="48.1246" lon="-4.28231">
        <ele>38</ele>
        <time>2021-09-27T21:26:51Z</time>
      </trkpt>
      <trkpt lat="48.12476" lon="-4.28225">
        <ele>38</ele>
        <time>2021-09-27T21:27:13Z</time>
      </trkpt>
      <trkpt lat="48.12486" lon="-4.28225">
        <ele>38</ele>
        <time>2021-09-27T21:27:27Z</time>
      </trkpt>
      <trkpt lat="48.12516" lon="-4.28218">
        <ele>38</ele>
        <time>2021-09-27T21:28:07Z</time>
      </trkpt>
      <trkpt lat="48.12521" lon="-4.2822">
        <ele>38</ele>
        <time>2021-09-27T21:28:14Z</time>
      </trkpt>
      <trkpt lat="48.12536" lon="-4.28217">
        <ele>37</ele>
        <time>2021-09-27T21:28:34Z</time>
      </trkpt>
      <trkpt lat="48.12551" lon="-4.28222">
        <ele>36</ele>
        <time>2021-09-27T21:28:55Z</time>
      </trkpt>
      <trkpt lat="48.12561" lon="-4.28217">
        <ele>36</ele>
        <time>2021-09-27T21:29:09Z</time>
      </trkpt>
      <trkpt lat="48.1257" lon="-4.28209">
        <ele>36</ele>
        <time>2021-09-27T21:29:23Z</time>
      </trkpt>
      <trkpt lat="48.12573" lon="-4.28202">
        <ele>36</ele>
        <time>2021-09-27T21:29:30Z</time>
      </trkpt>
      <trkpt lat="48.12596" lon="-4.28188">
        <ele>35</ele>
        <time>2021-09-27T21:30:03Z</time>
      </trkpt>
      <trkpt lat="48.12599" lon="-4.28184">
        <ele>35</ele>
        <time>2021-09-27T21:30:09Z</time>
      </trkpt>
      <trkpt lat="48.12609" lon="-4.28158">
        <ele>36</ele>
        <time>2021-09-27T21:30:35Z</time>
      </trkpt>
      <trkpt lat="48.12609" lon="-4.28142">
        <ele>37</ele>
        <time>2021-09-27T21:30:50Z</time>
      </trkpt>
      <trkpt lat="48.12604" lon="-4.2803">
        <ele>40</ele>
        <time>2021-09-27T21:32:30Z</time>
      </trkpt>
      <trkpt lat="48.12607" lon="-4.27999">
        <ele>40</ele>
        <time>2021-09-27T21:32:57Z</time>
      </trkpt>
      <trkpt lat="48.12603" lon="-4.27939">
        <ele>41</ele>
        <time>2021-09-27T21:33:51Z</time>
      </trkpt>
      <trkpt lat="48.12604" lon="-4.27916">
        <ele>41</ele>
        <time>2021-09-27T21:34:12Z</time>
      </trkpt>
      <trkpt lat="48.12599" lon="-4.2787">
        <ele>43</ele>
        <time>2021-09-27T21:34:53Z</time>
      </trkpt>
      <trkpt lat="48.12599" lon="-4.2784">
        <ele>44</ele>
        <time>2021-09-27T21:35:20Z</time>
      </trkpt>
      <trkpt lat="48.12595" lon="-4.27811">
        <ele>45</ele>
        <time>2021-09-27T21:35:46Z</time>
      </trkpt>
      <trkpt lat="48.12595" lon="-4.27703">
        <ele>48</ele>
        <time>2021-09-27T21:37:23Z</time>
      </trkpt>
      <trkpt lat="48.12591" lon="-4.27652">
        <ele>48</ele>
        <time>2021-09-27T21:38:08Z</time>
      </trkpt>
      <trkpt lat="48.12581" lon="-4.27625">
        <ele>49</ele>
        <time>2021-09-27T21:38:36Z</time>
      </trkpt>
      <trkpt lat="48.12573" lon="-4.27619">
        <ele>49</ele>
        <time>2021-09-27T21:38:48Z</time>
      </trkpt>
      <trkpt lat="48.12574" lon="-4.27598">
        <ele>49</ele>
        <time>2021-09-27T21:39:06Z</time>
      </trkpt>
      <trkpt lat="48.12593" lon="-4.27565">
        <ele>47</ele>
        <time>2021-09-27T21:39:45Z</time>
      </trkpt>
      <trkpt lat="48.12639" lon="-4.275">
        <ele>45</ele>
        <time>2021-09-27T21:41:10Z</time>
      </trkpt>
      <trkpt lat="48.12674" lon="-4.27445">
        <ele>43</ele>
        <time>2021-09-27T21:42:17Z</time>
      </trkpt>
      <trkpt lat="48.12696" lon="-4.27414">
        <ele>43</ele>
        <time>2021-09-27T21:42:58Z</time>
      </trkpt>
      <trkpt lat="48.12718" lon="-4.27389">
        <ele>42</ele>
        <time>2021-09-27T21:43:34Z</time>
      </trkpt>
      <trkpt lat="48.12736" lon="-4.2736">
        <ele>42</ele>
        <time>2021-09-27T21:44:10Z</time>
      </trkpt>
      <trkpt lat="48.12763" lon="-4.27327">
        <ele>41</ele>
        <time>2021-09-27T21:44:56Z</time>
      </trkpt>
      <trkpt lat="48.1277" lon="-4.27317">
        <ele>41</ele>
        <time>2021-09-27T21:45:09Z</time>
      </trkpt>
      <trkpt lat="48.12778" lon="-4.27298">
        <ele>41</ele>
        <time>2021-09-27T21:45:29Z</time>
      </trkpt>
      <trkpt lat="48.12802" lon="-4.27261">
        <ele>40</ele>
        <time>2021-09-27T21:46:15Z</time>
      </trkpt>
      <trkpt lat="48.12806" lon="-4.27262">
        <ele>40</ele>
        <time>2021-09-27T21:46:21Z</time>
      </trkpt>
      <trkpt lat="48.12814" lon="-4.27252">
        <ele>40</ele>
        <time>2021-09-27T21:46:34Z</time>
      </trkpt>
      <trkpt lat="48.12826" lon="-4.27228">
        <ele>40</ele>
        <time>2021-09-27T21:47:01Z</time>
      </trkpt>
      <trkpt lat="48.12841" lon="-4.27205">
        <ele>40</ele>
        <time>2021-09-27T21:47:30Z</time>
      </trkpt>
      <trkpt lat="48.12861" lon="-4.27182">
        <ele>40</ele>
        <time>2021-09-27T21:48:03Z</time>
      </trkpt>
      <trkpt lat="48.12871" lon="-4.27165">
        <ele>40</ele>
        <time>2021-09-27T21:48:24Z</time>
      </trkpt>
      <trkpt lat="48.12872" lon="-4.2715">
        <ele>40</ele>
        <time>2021-09-27T21:48:37Z</time>
      </trkpt>
      <trkpt lat="48.12866" lon="-4.27136">
        <ele>40</ele>
        <time>2021-09-27T21:48:52Z</time>
      </trkpt>
      <trkpt lat="48.12845" lon="-4.2712">
        <ele>39</ele>
        <time>2021-09-27T21:49:23Z</time>
      </trkpt>
      <trkpt lat="48.12836" lon="-4.27117">
        <ele>38</ele>
        <time>2021-09-27T21:49:36Z</time>
      </trkpt>
      <trkpt lat="48.12817" lon="-4.27103">
        <ele>38</ele>
        <time>2021-09-27T21:50:04Z</time>
      </trkpt>
      <trkpt lat="48.12806" lon="-4.27101">
        <ele>38</ele>
        <time>2021-09-27T21:50:19Z</time>
      </trkpt>
      <trkpt lat="48.12797" lon="-4.27094">
        <ele>38</ele>
        <time>2021-09-27T21:50:32Z</time>
      </trkpt>
      <trkpt lat="48.12787" lon="-4.27078">
        <ele>38</ele>
        <time>2021-09-27T21:50:52Z</time>
      </trkpt>
      <trkpt lat="48.12789" lon="-4.27064">
        <ele>38</ele>
        <time>2021-09-27T21:51:04Z</time>
      </trkpt>
      <trkpt lat="48.12814" lon="-4.27026">
        <ele>37</ele>
        <time>2021-09-27T21:51:52Z</time>
      </trkpt>
      <trkpt lat="48.12822" lon="-4.27006">
        <ele>36</ele>
        <time>2021-09-27T21:52:13Z</time>
      </trkpt>
      <trkpt lat="48.12821" lon="-4.2694">
        <ele>34</ele>
        <time>2021-09-27T21:53:12Z</time>
      </trkpt>
      <trkpt lat="48.12824" lon="-4.26881">
        <ele>31</ele>
        <time>2021-09-27T21:54:04Z</time>
      </trkpt>
      <trkpt lat="48.12821" lon="-4.26859">
        <ele>30</ele>
        <time>2021-09-27T21:54:24Z</time>
      </trkpt>
      <trkpt lat="48.12824" lon="-4.26836">
        <ele>29</ele>
        <time>2021-09-27T21:54:45Z</time>
      </trkpt>
      <trkpt lat="48.12822" lon="-4.26814">
        <ele>27</ele>
        <time>2021-09-27T21:55:05Z</time>
      </trkpt>
      <trkpt lat="48.1283" lon="-4.26784">
        <ele>25</ele>
        <time>2021-09-27T21:55:34Z</time>
      </trkpt>
      <trkpt lat="48.12842" lon="-4.26754">
        <ele>22</ele>
        <time>2021-09-27T21:56:05Z</time>
      </trkpt>
      <trkpt lat="48.12849" lon="-4.26726">
        <ele>18</ele>
        <time>2021-09-27T21:56:31Z</time>
      </trkpt>
      <trkpt lat="48.12858" lon="-4.26719">
        <ele>16</ele>
        <time>2021-09-27T21:56:45Z</time>
      </trkpt>
      <trkpt lat="48.12869" lon="-4.26719">
        <ele>15</ele>
        <time>2021-09-27T21:57:00Z</time>
      </trkpt>
      <trkpt lat="48.12874" lon="-4.26721">
        <ele>15</ele>
        <time>2021-09-27T21:57:07Z</time>
      </trkpt>
      <trkpt lat="48.12881" lon="-4.26729">
        <ele>15</ele>
        <time>2021-09-27T21:57:18Z</time>
      </trkpt>
      <trkpt lat="48.12887" lon="-4.26731">
        <ele>15</ele>
        <time>2021-09-27T21:57:27Z</time>
      </trkpt>
      <trkpt lat="48.12896" lon="-4.26733">
        <ele>14</ele>
        <time>2021-09-27T21:57:39Z</time>
      </trkpt>
      <trkpt lat="48.12908" lon="-4.2673">
        <ele>13</ele>
        <time>2021-09-27T21:57:55Z</time>
      </trkpt>
      <trkpt lat="48.12912" lon="-4.26732">
        <ele>13</ele>
        <time>2021-09-27T21:58:01Z</time>
      </trkpt>
      <trkpt lat="48.1292" lon="-4.26742">
        <ele>13</ele>
        <time>2021-09-27T21:58:14Z</time>
      </trkpt>
      <trkpt lat="48.12932" lon="-4.26765">
        <ele>15</ele>
        <time>2021-09-27T21:58:40Z</time>
      </trkpt>
      <trkpt lat="48.12951" lon="-4.2679">
        <ele>15</ele>
        <time>2021-09-27T21:59:14Z</time>
      </trkpt>
      <trkpt lat="48.12956" lon="-4.2679">
        <ele>15</ele>
        <time>2021-09-27T21:59:21Z</time>
      </trkpt>
      <trkpt lat="48.12978" lon="-4.26806">
        <ele>13</ele>
        <time>2021-09-27T21:59:54Z</time>
      </trkpt>
      <trkpt lat="48.12989" lon="-4.26808">
        <ele>11</ele>
        <time>2021-09-27T22:00:08Z</time>
      </trkpt>
      <trkpt lat="48.12998" lon="-4.26804">
        <ele>10</ele>
        <time>2021-09-27T22:00:21Z</time>
      </trkpt>
      <trkpt lat="48.13008" lon="-4.26803">
        <ele>10</ele>
        <time>2021-09-27T22:00:34Z</time>
      </trkpt>
      <trkpt lat="48.13012" lon="-4.26799">
        <ele>10</ele>
        <time>2021-09-27T22:00:41Z</time>
      </trkpt>
      <trkpt lat="48.13023" lon="-4.26798">
        <ele>11</ele>
        <time>2021-09-27T22:00:55Z</time>
      </trkpt>
      <trkpt lat="48.13047" lon="-4.26786">
        <ele>13</ele>
        <time>2021-09-27T22:01:29Z</time>
      </trkpt>
      <trkpt lat="48.13052" lon="-4.26786">
        <ele>14</ele>
        <time>2021-09-27T22:01:36Z</time>
      </trkpt>
      <trkpt lat="48.13062" lon="-4.26802">
        <ele>14</ele>
        <time>2021-09-27T22:01:55Z</time>
      </trkpt>
      <trkpt lat="48.13064" lon="-4.26815">
        <ele>13</ele>
        <time>2021-09-27T22:02:07Z</time>
      </trkpt>
      <trkpt lat="48.13075" lon="-4.26829">
        <ele>12</ele>
        <time>2021-09-27T22:02:26Z</time>
      </trkpt>
      <trkpt lat="48.13078" lon="-4.26842">
        <ele>12</ele>
        <time>2021-09-27T22:02:39Z</time>
      </trkpt>
      <trkpt lat="48.13085" lon="-4.26855">
        <ele>11</ele>
        <time>2021-09-27T22:02:54Z</time>
      </trkpt>
      <trkpt lat="48.13097" lon="-4.26866">
        <ele>12</ele>
        <time>2021-09-27T22:03:12Z</time>
      </trkpt>
      <trkpt lat="48.13108" lon="-4.26882">
        <ele>13</ele>
        <time>2021-09-27T22:03:33Z</time>
      </trkpt>
      <trkpt lat="48.13112" lon="-4.26895">
        <ele>12</ele>
        <time>2021-09-27T22:03:46Z</time>
      </trkpt>
      <trkpt lat="48.13152" lon="-4.26936">
        <ele>13</ele>
        <time>2021-09-27T22:04:50Z</time>
      </trkpt>
      <trkpt lat="48.13161" lon="-4.26955">
        <ele>12</ele>
        <time>2021-09-27T22:05:11Z</time>
      </trkpt>
      <trkpt lat="48.13166" lon="-4.26957">
        <ele>12</ele>
        <time>2021-09-27T22:05:18Z</time>
      </trkpt>
      <trkpt lat="48.13174" lon="-4.26967">
        <ele>12</ele>
        <time>2021-09-27T22:05:32Z</time>
      </trkpt>
      <trkpt lat="48.13184" lon="-4.2697">
        <ele>12</ele>
        <time>2021-09-27T22:05:45Z</time>
      </trkpt>
      <trkpt lat="48.13205" lon="-4.26987">
        <ele>11</ele>
        <time>2021-09-27T22:06:17Z</time>
      </trkpt>
      <trkpt lat="48.13215" lon="-4.26991">
        <ele>11</ele>
        <time>2021-09-27T22:06:31Z</time>
      </trkpt>
      <trkpt lat="48.13229" lon="-4.26989">
        <ele>12</ele>
        <time>2021-09-27T22:06:50Z</time>
      </trkpt>
      <trkpt lat="48.13254" lon="-4.26994">
        <ele>11</ele>
        <time>2021-09-27T22:07:23Z</time>
      </trkpt>
      <trkpt lat="48.13299" lon="-4.26979">
        <ele>9</ele>
        <time>2021-09-27T22:08:25Z</time>
      </trkpt>
      <trkpt lat="48.13309" lon="-4.26978">
        <ele>8</ele>
        <time>2021-09-27T22:08:38Z</time>
      </trkpt>
      <trkpt lat="48.13338" lon="-4.26963">
        <ele>7</ele>
        <time>2021-09-27T22:09:19Z</time>
      </trkpt>
      <trkpt lat="48.13371" lon="-4.2693">
        <ele>7</ele>
        <time>2021-09-27T22:10:12Z</time>
      </trkpt>
      <trkpt lat="48.1338" lon="-4.26925">
        <ele>7</ele>
        <time>2021-09-27T22:10:25Z</time>
      </trkpt>
      <trkpt lat="48.13385" lon="-4.26913">
        <ele>7</ele>
        <time>2021-09-27T22:10:38Z</time>
      </trkpt>
      <trkpt lat="48.13388" lon="-4.26867">
        <ele>11</ele>
        <time>2021-09-27T22:11:19Z</time>
      </trkpt>
      <trkpt lat="48.13379" lon="-4.26815">
        <ele>15</ele>
        <time>2021-09-27T22:12:07Z</time>
      </trkpt>
      <trkpt lat="48.1338" lon="-4.268">
        <ele>15</ele>
        <time>2021-09-27T22:12:20Z</time>
      </trkpt>
      <trkpt lat="48.13377" lon="-4.26778">
        <ele>15</ele>
        <time>2021-09-27T22:12:40Z</time>
      </trkpt>
      <trkpt lat="48.13376" lon="-4.26741">
        <ele>16</ele>
        <time>2021-09-27T22:13:13Z</time>
      </trkpt>
      <trkpt lat="48.13378" lon="-4.26697">
        <ele>17</ele>
        <time>2021-09-27T22:13:52Z</time>
      </trkpt>
      <trkpt lat="48.13373" lon="-4.26683">
        <ele>17</ele>
        <time>2021-09-27T22:14:06Z</time>
      </trkpt>
      <trkpt lat="48.1337" lon="-4.26647">
        <ele>17</ele>
        <time>2021-09-27T22:14:39Z</time>
      </trkpt>
      <trkpt lat="48.13392" lon="-4.26529">
        <ele>21</ele>
        <time>2021-09-27T22:16:28Z</time>
      </trkpt>
      <trkpt lat="48.13405" lon="-4.26487">
        <ele>21</ele>
        <time>2021-09-27T22:17:09Z</time>
      </trkpt>
      <trkpt lat="48.13409" lon="-4.26464">
        <ele>21</ele>
        <time>2021-09-27T22:17:30Z</time>
      </trkpt>
      <trkpt lat="48.13424" lon="-4.2641">
        <ele>21</ele>
        <time>2021-09-27T22:18:22Z</time>
      </trkpt>
      <trkpt lat="48.13424" lon="-4.26403">
        <ele>21</ele>
        <time>2021-09-27T22:18:29Z</time>
      </trkpt>
      <trkpt lat="48.13434" lon="-4.26375">
        <ele>22</ele>
        <time>2021-09-27T22:18:57Z</time>
      </trkpt>
      <trkpt lat="48.13454" lon="-4.263">
        <ele>24</ele>
        <time>2021-09-27T22:20:09Z</time>
      </trkpt>
      <trkpt lat="48.13467" lon="-4.26288">
        <ele>25</ele>
        <time>2021-09-27T22:20:29Z</time>
      </trkpt>
      <trkpt lat="48.13466" lon="-4.26281">
        <ele>25</ele>
        <time>2021-09-27T22:20:36Z</time>
      </trkpt>
      <trkpt lat="48.1347" lon="-4.26268">
        <ele>25</ele>
        <time>2021-09-27T22:20:48Z</time>
      </trkpt>
      <trkpt lat="48.13469" lon="-4.26254">
        <ele>24</ele>
        <time>2021-09-27T22:21:01Z</time>
      </trkpt>
      <trkpt lat="48.13473" lon="-4.26249">
        <ele>24</ele>
        <time>2021-09-27T22:21:08Z</time>
      </trkpt>
      <trkpt lat="48.13475" lon="-4.26221">
        <ele>25</ele>
        <time>2021-09-27T22:21:33Z</time>
      </trkpt>
      <trkpt lat="48.13483" lon="-4.2623">
        <ele>25</ele>
        <time>2021-09-27T22:21:46Z</time>
      </trkpt>
      <trkpt lat="48.13476" lon="-4.2622">
        <ele>25</ele>
        <time>2021-09-27T22:21:59Z</time>
      </trkpt>
      <trkpt lat="48.13481" lon="-4.26219">
        <ele>25</ele>
        <time>2021-09-27T22:22:06Z</time>
      </trkpt>
      <trkpt lat="48.13477" lon="-4.26224">
        <ele>25</ele>
        <time>2021-09-27T22:22:13Z</time>
      </trkpt>
      <trkpt lat="48.13488" lon="-4.26238">
        <ele>25</ele>
        <time>2021-09-27T22:22:32Z</time>
      </trkpt>
      <trkpt lat="48.13499" lon="-4.26242">
        <ele>25</ele>
        <time>2021-09-27T22:22:47Z</time>
      </trkpt>
      <trkpt lat="48.13505" lon="-4.26241">
        <ele>25</ele>
        <time>2021-09-27T22:22:55Z</time>
      </trkpt>
      <trkpt lat="48.13513" lon="-4.26235">
        <ele>26</ele>
        <time>2021-09-27T22:23:07Z</time>
      </trkpt>
      <trkpt lat="48.13562" lon="-4.26235">
        <ele>29</ele>
        <time>2021-09-27T22:24:13Z</time>
      </trkpt>
      <trkpt lat="48.13576" lon="-4.26227">
        <ele>29</ele>
        <time>2021-09-27T22:24:33Z</time>
      </trkpt>
      <trkpt lat="48.13579" lon="-4.26221">
        <ele>29</ele>
        <time>2021-09-27T22:24:39Z</time>
      </trkpt>
      <trkpt lat="48.13582" lon="-4.26191">
        <ele>29</ele>
        <time>2021-09-27T22:25:06Z</time>
      </trkpt>
      <trkpt lat="48.13586" lon="-4.26187">
        <ele>29</ele>
        <time>2021-09-27T22:25:13Z</time>
      </trkpt>
      <trkpt lat="48.13591" lon="-4.26187">
        <ele>30</ele>
        <time>2021-09-27T22:25:19Z</time>
      </trkpt>
      <trkpt lat="48.13593" lon="-4.26193">
        <ele>30</ele>
        <time>2021-09-27T22:25:25Z</time>
      </trkpt>
      <trkpt lat="48.13593" lon="-4.26218">
        <ele>30</ele>
        <time>2021-09-27T22:25:48Z</time>
      </trkpt>
      <trkpt lat="48.13606" lon="-4.26231">
        <ele>31</ele>
        <time>2021-09-27T22:26:08Z</time>
      </trkpt>
      <trkpt lat="48.13609" lon="-4.26237">
        <ele>31</ele>
        <time>2021-09-27T22:26:15Z</time>
      </trkpt>
      <trkpt lat="48.13613" lon="-4.26258">
        <ele>32</ele>
        <time>2021-09-27T22:26:35Z</time>
      </trkpt>
      <trkpt lat="48.1362" lon="-4.26266">
        <ele>33</ele>
        <time>2021-09-27T22:26:46Z</time>
      </trkpt>
      <trkpt lat="48.13625" lon="-4.26263">
        <ele>33</ele>
        <time>2021-09-27T22:26:54Z</time>
      </trkpt>
      <trkpt lat="48.13621" lon="-4.26267">
        <ele>33</ele>
        <time>2021-09-27T22:27:00Z</time>
      </trkpt>
      <trkpt lat="48.13616" lon="-4.26264">
        <ele>33</ele>
        <time>2021-09-27T22:27:07Z</time>
      </trkpt>
      <trkpt lat="48.13605" lon="-4.2623">
        <ele>31</ele>
        <time>2021-09-27T22:27:41Z</time>
      </trkpt>
      <trkpt lat="48.13601" lon="-4.26226">
        <ele>31</ele>
        <time>2021-09-27T22:27:47Z</time>
      </trkpt>
      <trkpt lat="48.13596" lon="-4.26213">
        <ele>30</ele>
        <time>2021-09-27T22:28:01Z</time>
      </trkpt>
      <trkpt lat="48.13587" lon="-4.26209">
        <ele>30</ele>
        <time>2021-09-27T22:28:13Z</time>
      </trkpt>
      <trkpt lat="48.13587" lon="-4.26194">
        <ele>30</ele>
        <time>2021-09-27T22:28:26Z</time>
      </trkpt>
      <trkpt lat="48.1359" lon="-4.26181">
        <ele>30</ele>
        <time>2021-09-27T22:28:39Z</time>
      </trkpt>
      <trkpt lat="48.13597" lon="-4.26169">
        <ele>30</ele>
        <time>2021-09-27T22:28:53Z</time>
      </trkpt>
      <trkpt lat="48.13598" lon="-4.26162">
        <ele>30</ele>
        <time>2021-09-27T22:28:59Z</time>
      </trkpt>
      <trkpt lat="48.13597" lon="-4.26132">
        <ele>29</ele>
        <time>2021-09-27T22:29:26Z</time>
      </trkpt>
      <trkpt lat="48.13603" lon="-4.26092">
        <ele>29</ele>
        <time>2021-09-27T22:30:03Z</time>
      </trkpt>
      <trkpt lat="48.1362" lon="-4.26068">
        <ele>30</ele>
        <time>2021-09-27T22:30:34Z</time>
      </trkpt>
      <trkpt lat="48.13636" lon="-4.2608">
        <ele>31</ele>
        <time>2021-09-27T22:30:58Z</time>
      </trkpt>
      <trkpt lat="48.13668" lon="-4.26129">
        <ele>33</ele>
        <time>2021-09-27T22:31:59Z</time>
      </trkpt>
      <trkpt lat="48.136" lon="-4.26174">
        <ele>30</ele>
        <time>2021-09-27T22:33:38Z</time>
      </trkpt>
    </trkseg>
  </trk>
</gpx>